Time;durP1;ratioP1;P1;durP2;ratioP2;P2;SDS_P1;SDS_P2;PMS_P1;PMS_P2;Temp;Humidity;BMP_temperature;BMP_pressure;BME280_temperature;BME280_humidity;BME280_pressure;Samples;Min_cycle;Max_cycle;Signal;HPM_P1;HPM_P2
2022/12/29 00:00:55;;;;;;;3.20;1.60;;;8.40;99.90;;;7.83;100.00;97174.09;5001978;28;20137;-69
2022/12/29 00:03:22;;;;;;;5.28;2.33;;;8.50;99.90;;;7.83;100.00;97179.28;4998967;28;20488;-68
2022/12/29 00:05:58;;;;;;;5.13;2.10;;;8.40;99.90;;;7.75;100.00;97158.91;5000541;28;20511;-69
2022/12/29 00:08:39;;;;;;;6.45;2.58;;;8.40;99.90;;;7.70;100.00;97181.47;4999452;28;20048;-69
2022/12/29 00:11:18;;;;;;;5.88;2.75;;;8.40;99.90;;;7.72;100.00;97159.00;4997148;28;20097;-71
2022/12/29 00:16:32;;;;;;;10.38;2.95;;;8.50;99.90;;;7.79;100.00;97182.03;4999024;28;20068;-69
2022/12/29 00:18:59;;;;;;;5.40;1.60;;;8.50;99.90;;;7.87;100.00;97165.34;4998956;28;20077;-68
2022/12/29 00:35:30;;;;;;;7.88;1.70;;;8.70;99.90;;;8.00;100.00;97133.84;4998755;28;20080;-68
2022/12/29 00:46:18;;;;;;;3.85;1.05;;;8.80;99.90;;;8.18;100.00;97113.25;4998972;28;20864;-68
2022/12/29 00:51:31;;;;;;;3.45;1.20;;;8.90;99.90;;;8.31;100.00;97113.63;4994494;28;20050;-68
2022/12/29 00:53:58;;;;;;;7.95;1.10;;;8.90;99.90;;;8.38;100.00;97115.03;4996433;28;20052;-68
2022/12/29 00:56:25;;;;;;;2.08;0.90;;;9.00;99.90;;;8.31;100.00;97121.38;5002296;28;20050;-67
2022/12/29 00:58:52;;;;;;;5.47;0.98;;;9.00;99.90;;;8.40;100.00;97050.38;4992251;28;20034;-68
2022/12/29 01:01:19;;;;;;;1.42;0.75;;;8.90;99.90;;;8.44;100.00;97110.53;4997377;28;20065;-68
2022/12/29 01:03:46;;;;;;;1.48;0.65;;;9.00;99.90;;;8.61;100.00;97122.78;4997129;28;20070;-69
2022/12/29 01:06:14;;;;;;;3.88;0.98;;;9.10;99.90;;;8.59;100.00;97112.50;4997270;28;20082;-68
2022/12/29 01:08:41;;;;;;;3.85;0.98;;;9.10;99.90;;;8.59;100.00;97120.25;5000215;28;20540;-68
2022/12/29 01:11:11;;;;;;;4.20;0.88;;;9.10;99.90;;;8.63;100.00;97080.44;5000157;28;20050;-68
2022/12/29 01:13:40;;;;;;;4.38;0.93;;;9.20;99.90;;;8.67;100.00;97114.78;5003746;28;20475;-68
2022/12/29 01:16:07;;;;;;;3.47;0.90;;;9.30;99.90;;;8.66;100.00;97085.47;5006848;28;20042;-68
2022/12/29 01:18:34;;;;;;;4.68;0.90;;;9.30;99.90;;;8.64;100.00;97063.16;5002557;28;20046;-67
2022/12/29 01:21:04;;;;;;;2.67;0.90;;;9.40;99.90;;;8.63;100.00;97085.59;5003194;28;20101;-68
2022/12/29 01:23:32;;;;;;;3.28;1.10;;;9.30;99.90;;;8.52;100.00;97056.75;5005960;28;20057;-68
2022/12/29 01:26:12;;;;;;;3.55;1.27;;;9.40;99.90;;;8.53;100.00;97074.81;5004094;28;20514;-68
2022/12/29 01:28:41;;;;;;;2.58;0.90;;;9.30;99.90;;;8.54;100.00;97097.19;4999234;28;20073;-69
2022/12/29 01:31:13;;;;;;;5.38;1.35;;;9.20;99.90;;;8.47;100.00;97069.06;5004224;28;20046;-67
2022/12/29 01:33:42;;;;;;;3.22;1.25;;;9.10;99.90;;;8.45;100.00;97094.13;4999520;28;20046;-68
2022/12/29 01:36:14;;;;;;;5.95;1.40;;;9.20;99.90;;;8.43;100.00;97075.25;4997343;28;20049;-68
2022/12/29 01:38:43;;;;;;;4.43;1.13;;;9.10;99.90;;;8.51;100.00;97065.44;5000351;28;20133;-68
2022/12/29 01:41:14;;;;;;;6.50;1.42;;;9.20;99.90;;;8.47;100.00;97089.75;4999784;28;20514;-68
2022/12/29 01:43:56;;;;;;;5.95;1.00;;;9.20;99.90;;;8.48;100.00;97100.00;4997078;28;20053;-67
2022/12/29 01:46:29;;;;;;;3.85;1.20;;;9.20;99.90;;;8.47;100.00;97085.41;5002597;28;20145;-67
2022/12/29 01:49:16;;;;;;;4.63;1.17;;;9.10;99.90;;;8.46;100.00;97096.69;5003172;28;20054;-67
2022/12/29 01:51:57;;;;;;;3.78;1.30;;;9.10;99.90;;;8.46;100.00;97124.25;4999638;28;20066;-67
2022/12/29 01:54:32;;;;;;;3.85;1.23;;;9.10;99.90;;;8.52;100.00;97113.66;5005149;28;20046;-68
2022/12/29 01:57:04;;;;;;;5.93;1.20;;;9.10;99.90;;;8.48;100.00;97133.63;4997499;28;20050;-68
2022/12/29 01:59:38;;;;;;;5.45;1.38;;;9.10;99.90;;;8.55;100.00;97147.16;4998405;28;20096;-68
2022/12/29 02:02:06;;;;;;;5.47;1.38;;;9.20;99.90;;;8.50;100.00;97100.78;5000324;28;20174;-67
2022/12/29 02:04:34;;;;;;;4.72;1.27;;;9.20;99.90;;;8.57;100.00;97084.09;4998066;28;20130;-68
2022/12/29 02:07:12;;;;;;;3.72;1.25;;;9.20;99.90;;;8.68;100.00;97096.59;4997959;28;20081;-68
2022/12/29 02:09:40;;;;;;;3.78;1.30;;;9.30;99.90;;;8.65;100.00;97052.75;4998796;28;20058;-68
2022/12/29 02:12:07;;;;;;;6.25;1.13;;;9.40;99.90;;;8.68;100.00;97044.84;4999261;28;20745;-68
2022/12/29 02:14:34;;;;;;;2.45;0.90;;;9.40;99.90;;;8.73;100.00;97039.47;4996282;28;20125;-68
2022/12/29 02:17:37;;;;;;;4.75;1.10;;;9.40;99.90;;;8.71;100.00;97021.44;4994091;28;20065;-67
2022/12/29 02:20:47;;;;;;;3.85;1.08;;;9.50;99.90;;;8.78;100.00;97020.25;4997215;28;20064;-68
2022/12/29 02:23:47;;;;;;;4.15;1.10;;;9.50;99.90;;;8.70;100.00;97014.56;4997122;28;20108;-68
2022/12/29 02:26:45;;;;;;;4.30;1.00;;;9.50;99.90;;;8.69;100.00;97009.44;5000321;28;20050;-68
2022/12/29 02:29:42;;;;;;;4.35;1.23;;;9.40;99.90;;;8.76;100.00;97005.72;4998838;28;20167;-67
2022/12/29 02:32:36;;;;;;;5.00;0.98;;;9.40;99.90;;;8.77;100.00;97007.38;4996458;28;20052;-67
2022/12/29 02:35:34;;;;;;;2.35;1.20;;;9.50;99.90;;;8.75;100.00;97033.31;5003740;28;20046;-68
2022/12/29 02:38:39;;;;;;;8.27;1.70;;;9.50;99.90;;;8.79;100.00;96996.03;4999979;28;20065;-67
2022/12/29 02:41:31;;;;;;;4.72;1.00;;;9.50;99.90;;;8.81;100.00;96982.22;5000165;28;20054;-68
2022/12/29 02:44:28;;;;;;;4.47;1.17;;;9.50;99.90;;;8.71;100.00;96985.22;4994735;28;20084;-68
2022/12/29 02:47:37;;;;;;;3.08;1.40;;;9.40;99.90;;;8.74;100.00;96987.66;4999293;28;20053;-68
2022/12/29 02:50:39;;;;;;;2.92;1.33;;;9.50;99.90;;;8.75;100.00;96978.13;4992356;28;20053;-68
2022/12/29 02:53:16;;;;;;;3.63;1.30;;;9.50;99.90;;;8.72;100.00;96975.69;4994928;28;20133;-68
2022/12/29 02:55:50;;;;;;;6.00;1.65;;;9.50;99.90;;;8.73;100.00;96967.84;4997286;28;20054;-68
2022/12/29 02:58:22;;;;;;;4.43;1.30;;;9.50;99.90;;;8.73;100.00;96965.25;4995997;28;20050;-67
2022/12/29 03:02:18;;;;;;;7.20;1.40;;;9.50;99.90;;;8.71;100.00;96971.41;4963393;28;1193327;-68
2022/12/29 03:05:15;;;;;;;5.43;1.30;;;9.50;99.90;;;8.69;100.00;96974.09;4955092;28;20058;-67
2022/12/29 03:07:53;;;;;;;3.75;1.20;;;9.50;99.90;;;8.65;100.00;96940.66;4952562;28;20126;-67
2022/12/29 03:12:07;;;;;;;3.47;1.27;;;9.50;99.90;;;8.70;100.00;96934.34;4991633;28;20058;-67
2022/12/29 03:17:30;;;;;;;7.28;1.40;;;9.40;99.90;;;8.66;100.00;96938.00;4997315;28;20060;-67
2022/12/29 03:20:07;;;;;;;4.57;1.38;;;9.40;99.90;;;8.72;100.00;96918.78;4989784;28;20058;-68
2022/12/29 03:22:40;;;;;;;4.93;1.20;;;9.40;99.90;;;8.73;100.00;96912.69;5002430;28;20046;-68
2022/12/29 03:25:30;;;;;;;7.47;1.27;;;9.40;99.90;;;8.75;100.00;96910.88;5006280;28;20043;-68
2022/12/29 03:28:03;;;;;;;3.63;1.13;;;9.40;99.90;;;8.68;100.00;96907.72;4979326;28;20485;-68
2022/12/29 03:30:33;;;;;;;4.55;1.30;;;9.40;99.90;;;8.74;100.00;96914.38;5004156;28;20497;-68
2022/12/29 03:33:08;;;;;;;3.50;1.23;;;9.50;99.90;;;8.73;100.00;96866.09;4997750;28;20081;-67
2022/12/29 03:35:40;;;;;;;5.03;1.20;;;9.60;99.90;;;8.70;100.00;96892.13;5006625;28;20049;-68
2022/12/29 03:38:27;;;;;;;3.20;1.10;;;9.50;99.90;;;8.73;100.00;96876.44;5005405;28;20050;-68
2022/12/29 03:40:58;;;;;;;5.72;1.35;;;9.50;99.90;;;8.76;100.00;96866.81;4997090;28;20060;-68
2022/12/29 03:43:27;;;;;;;3.63;1.20;;;9.60;99.90;;;8.76;100.00;96897.03;4998061;28;20542;-68
2022/12/29 03:45:54;;;;;;;3.63;1.23;;;9.60;99.90;;;8.74;100.00;96907.44;4995847;28;20056;-68
2022/12/29 03:48:21;;;;;;;3.20;1.15;;;9.60;99.90;;;8.81;100.00;96896.81;4997240;28;20085;-68
2022/12/29 03:50:47;;;;;;;5.32;1.10;;;9.60;99.90;;;8.70;100.00;96861.91;4997788;28;20053;-68
2022/12/29 03:53:15;;;;;;;4.95;1.00;;;9.50;99.90;;;8.68;100.00;96906.88;4999679;28;20621;-68
2022/12/29 03:55:42;;;;;;;3.83;1.05;;;9.40;99.90;;;8.72;100.00;96865.28;4998109;28;20416;-68
2022/12/29 03:58:09;;;;;;;5.03;1.10;;;9.50;99.90;;;8.65;100.00;96873.41;4994130;28;20064;-67
2022/12/29 04:00:36;;;;;;;2.30;1.00;;;9.50;99.90;;;8.69;100.00;96880.94;4997564;28;20058;-67
2022/12/29 04:03:03;;;;;;;3.50;1.10;;;9.40;99.90;;;8.64;100.00;96866.53;4997475;28;20058;-67
2022/12/29 04:05:31;;;;;;;4.13;1.20;;;9.40;99.90;;;8.72;100.00;96891.16;4999523;28;20050;-67
2022/12/29 04:07:58;;;;;;;3.90;0.80;;;9.50;99.90;;;8.78;100.00;96877.94;4997353;28;20128;-68
2022/12/29 04:10:25;;;;;;;6.07;0.98;;;9.60;99.90;;;8.80;100.00;96877.84;4997134;28;20054;-68
2022/12/29 04:12:52;;;;;;;3.38;1.52;;;9.60;99.90;;;8.79;100.00;96856.31;4994674;28;20164;-68
2022/12/29 04:15:19;;;;;;;4.50;1.00;;;9.60;99.90;;;8.74;100.00;96878.16;4992062;28;20451;-68
2022/12/29 04:17:46;;;;;;;4.80;1.17;;;9.50;99.90;;;8.83;100.00;96862.19;4991930;28;20057;-68
2022/12/29 04:23:01;;;;;;;3.80;1.20;;;9.60;99.90;;;8.87;100.00;96865.47;4997058;28;20089;-68
2022/12/29 04:25:30;;;;;;;3.05;0.98;;;9.60;99.90;;;8.89;100.00;96874.81;4996330;28;20053;-67
2022/12/29 04:27:57;;;;;;;6.07;0.90;;;9.70;99.90;;;8.99;100.00;96864.91;4998348;28;20050;-68
2022/12/29 04:30:24;;;;;;;5.95;1.48;;;9.80;99.90;;;8.90;100.00;96875.69;4996055;28;20153;-67
2022/12/29 04:32:52;;;;;;;5.80;1.20;;;9.80;99.90;;;9.00;100.00;96859.63;4995120;28;20504;-68
2022/12/29 04:35:19;;;;;;;4.85;1.30;;;9.90;99.90;;;8.94;100.00;96856.50;4994335;28;20049;-68
2022/12/29 04:37:46;;;;;;;2.90;0.90;;;9.80;99.90;;;8.99;100.00;96846.78;4999533;28;20048;-68
2022/12/29 04:40:13;;;;;;;3.33;1.00;;;9.80;99.90;;;9.06;100.00;96865.44;4997572;28;20052;-67
2022/12/29 04:42:40;;;;;;;2.90;1.02;;;9.80;99.90;;;9.05;100.00;96858.56;4992082;28;20133;-68
2022/12/29 04:45:08;;;;;;;4.05;1.17;;;10.00;99.90;;;9.16;100.00;96827.81;4995088;28;20080;-68
2022/12/29 04:47:35;;;;;;;3.25;0.80;;;10.00;99.90;;;9.15;100.00;96863.25;4997284;28;20054;-67
2022/12/29 04:50:02;;;;;;;2.28;0.80;;;10.00;99.90;;;9.24;100.00;96830.91;4996771;28;20060;-68
2022/12/29 04:52:29;;;;;;;6.25;1.13;;;10.00;99.90;;;9.17;100.00;96835.53;5003227;28;20060;-67
2022/12/29 04:54:56;;;;;;;3.65;1.38;;;10.00;99.90;;;9.20;100.00;96868.19;4998221;28;20393;-68
2022/12/29 04:57:23;;;;;;;1.90;0.80;;;10.00;99.90;;;9.18;100.00;96859.66;4996519;28;20089;-67
2022/12/29 04:59:50;;;;;;;5.00;1.13;;;9.90;99.90;;;9.15;100.00;96858.06;4995357;28;20050;-67
2022/12/29 05:02:17;;;;;;;2.83;1.10;;;10.00;99.90;;;9.25;100.00;96848.09;4997589;28;20050;-67
2022/12/29 05:04:45;;;;;;;4.20;1.15;;;10.10;99.90;;;9.31;100.00;96847.81;4993452;28;20058;-67
2022/12/29 05:07:13;;;;;;;3.28;1.00;;;10.20;99.90;;;9.32;100.00;96823.56;4995608;28;20319;-68
2022/12/29 05:09:40;;;;;;;2.25;0.98;;;10.20;99.90;;;9.31;100.00;96872.88;4999041;28;20054;-68
2022/12/29 05:12:07;;;;;;;4.72;1.13;;;10.20;99.90;;;9.31;100.00;96844.38;4996102;28;20137;-67
2022/12/29 05:14:34;;;;;;;2.80;1.00;;;10.20;99.90;;;9.42;100.00;96834.31;5000201;28;20686;-68
2022/12/29 05:17:01;;;;;;;2.53;0.95;;;10.20;99.90;;;9.38;100.00;96819.84;5000180;28;20133;-67
2022/12/29 05:19:28;;;;;;;3.88;1.40;;;10.20;99.90;;;9.32;100.00;96856.41;4994537;28;20050;-68
2022/12/29 05:21:55;;;;;;;3.00;1.13;;;10.20;99.90;;;9.35;100.00;96879.53;4998659;28;20050;-68
2022/12/29 05:24:22;;;;;;;7.55;1.42;;;10.30;99.90;;;9.31;100.00;96824.50;4999014;28;20069;-67
2022/12/29 05:26:49;;;;;;;4.43;1.20;;;10.10;99.90;;;9.31;100.00;96834.03;4992051;28;20496;-68
2022/12/29 05:29:16;;;;;;;2.85;0.90;;;10.20;99.90;;;9.26;100.00;96821.31;4997274;28;20421;-67
2022/12/29 05:31:43;;;;;;;5.53;1.23;;;10.10;99.90;;;9.19;100.00;96851.84;4997917;28;20081;-67
2022/12/29 05:34:13;;;;;;;3.95;1.23;;;10.10;99.90;;;9.05;100.00;96862.00;4996444;28;20056;-68
2022/12/29 05:36:40;;;;;;;4.80;1.27;;;9.80;99.90;;;9.11;100.00;96891.94;4999539;28;20049;-68
2022/12/29 05:39:07;;;;;;;4.28;1.30;;;9.70;99.90;;;9.09;100.00;96848.00;4993955;28;20058;-67
2022/12/29 05:41:35;;;;;;;4.28;1.35;;;9.80;99.90;;;9.17;100.00;96848.47;4990738;28;20145;-67
2022/12/29 05:44:02;;;;;;;5.85;1.33;;;9.70;99.90;;;9.18;100.00;96857.91;4992456;28;20109;-67
2022/12/29 05:46:29;;;;;;;3.75;1.40;;;9.80;99.90;;;9.25;100.00;96857.63;4991174;28;20066;-67
2022/12/29 05:48:56;;;;;;;5.47;1.67;;;10.00;99.90;;;9.38;100.00;96849.16;4992266;28;20089;-68
2022/12/29 05:51:23;;;;;;;8.20;1.65;;;10.10;99.90;;;9.52;100.00;96819.16;4996206;28;20050;-67
2022/12/29 05:53:50;;;;;;;4.03;1.10;;;10.30;99.90;;;9.51;100.00;96805.38;4994606;28;20050;-68
2022/12/29 05:56:17;;;;;;;4.15;1.85;;;10.30;99.90;;;9.42;100.00;96824.78;5001974;28;20050;-67
2022/12/29 05:58:44;;;;;;;3.83;1.40;;;10.40;99.90;;;9.54;100.00;96827.69;4998338;28;20161;-67
2022/12/29 06:01:11;;;;;;;4.03;1.40;;;10.40;99.90;;;9.61;100.00;96800.56;4994403;28;20046;-68
2022/12/29 06:03:38;;;;;;;5.03;1.27;;;10.40;99.90;;;9.66;100.00;96798.56;4994734;28;20050;-68
2022/12/29 06:06:13;;;;;;;6.00;1.33;;;10.40;99.90;;;9.66;100.00;96793.38;5000129;28;20077;-68
2022/12/29 06:08:40;;;;;;;5.90;1.60;;;10.50;99.90;;;9.78;100.00;96828.19;4997890;28;20370;-67
2022/12/29 06:11:10;;;;;;;2.95;1.40;;;10.50;99.90;;;9.80;100.00;96783.13;4996957;28;20049;-68
2022/12/29 06:13:37;;;;;;;4.70;1.42;;;10.60;99.90;;;9.77;100.00;96772.91;4993379;28;20425;-68
2022/12/29 06:16:07;;;;;;;4.00;1.30;;;10.60;99.90;;;9.71;100.00;96783.59;4997893;28;20057;-68
2022/12/29 06:18:34;;;;;;;7.22;1.63;;;10.60;99.90;;;9.98;100.00;96780.50;4997934;28;20050;-68
2022/12/29 06:21:03;;;;;;;2.53;1.23;;;10.70;99.90;;;9.93;100.00;96822.22;4997819;28;20054;-67
2022/12/29 06:23:30;;;;;;;5.45;1.35;;;10.70;99.90;;;9.98;100.00;96747.63;4998226;28;20419;-68
2022/12/29 06:25:57;;;;;;;5.65;1.30;;;10.70;99.90;;;10.07;100.00;96779.16;4995935;28;20076;-68
2022/12/29 06:28:24;;;;;;;3.97;1.38;;;10.80;99.90;;;10.07;100.00;96798.16;4998542;28;20141;-68
2022/12/29 06:30:51;;;;;;;2.63;1.27;;;10.90;99.90;;;10.01;100.00;96803.66;4996881;28;20050;-68
2022/12/29 06:33:21;;;;;;;13.15;2.05;;;10.90;99.90;;;9.98;100.00;96781.31;4995881;28;20057;-68
2022/12/29 06:35:49;;;;;;;3.03;1.25;;;10.80;99.90;;;9.95;100.00;96786.69;4995881;28;20043;-68
2022/12/29 06:38:16;;;;;;;3.53;1.40;;;10.90;99.90;;;10.00;100.00;96794.22;4998466;28;20046;-68
2022/12/29 06:40:44;;;;;;;4.45;1.33;;;10.80;99.90;;;9.89;100.00;96781.81;5001183;28;20054;-67
2022/12/29 06:43:11;;;;;;;4.25;1.10;;;10.80;99.90;;;9.96;100.00;96795.28;4994571;28;20062;-68
2022/12/29 06:45:40;;;;;;;5.95;1.60;;;10.70;99.90;;;9.91;100.00;96797.28;5006883;28;20046;-68
2022/12/29 06:48:07;;;;;;;5.22;1.60;;;10.70;99.90;;;9.95;100.00;96806.59;5000392;28;20054;-67
2022/12/29 06:50:35;;;;;;;4.07;1.17;;;10.90;99.90;;;9.98;100.00;96807.25;4994941;28;20141;-67
2022/12/29 06:53:01;;;;;;;6.05;1.55;;;10.90;99.90;;;9.96;100.00;96783.16;5001349;28;20046;-67
2022/12/29 06:55:28;;;;;;;4.57;1.15;;;10.90;99.90;;;10.05;100.00;96769.69;4998288;28;20045;-67
2022/12/29 06:57:57;;;;;;;3.40;1.58;;;10.90;99.90;;;10.01;100.00;96798.47;4994838;28;20048;-68
2022/12/29 07:00:25;;;;;;;7.78;1.63;;;10.80;99.90;;;10.00;100.00;96796.81;5014055;28;20488;-68
2022/12/29 07:02:57;;;;;;;5.22;1.63;;;10.90;99.90;;;10.00;100.00;96820.97;4999622;28;20499;-68
2022/12/29 07:05:27;;;;;;;6.75;1.27;;;10.90;99.90;;;10.08;100.00;96820.59;4996543;28;20377;-67
2022/12/29 07:07:55;;;;;;;3.97;1.60;;;10.90;99.90;;;10.01;100.00;96812.28;4995584;28;20061;-68
2022/12/29 07:10:22;;;;;;;6.35;1.83;;;10.80;99.90;;;9.78;100.00;96787.56;4996331;28;20107;-67
2022/12/29 07:12:51;;;;;;;6.38;2.30;;;10.60;99.90;;;9.92;100.00;96820.53;4995568;28;20072;-68
2022/12/29 07:15:18;;;;;;;5.47;1.50;;;10.50;99.90;;;9.85;100.00;96829.53;4991913;28;20057;-67
2022/12/29 07:17:45;;;;;;;6.80;2.10;;;10.50;99.90;;;9.89;100.00;96814.66;4997047;28;20046;-67
2022/12/29 07:20:12;;;;;;;8.52;1.88;;;10.70;99.90;;;9.94;100.00;96839.44;4993500;28;20050;-67
2022/12/29 07:22:39;;;;;;;8.07;2.33;;;10.70;99.90;;;9.84;100.00;96778.63;5004537;28;20065;-68
2022/12/29 07:25:06;;;;;;;4.40;1.63;;;10.70;99.90;;;9.97;100.00;96867.81;4996837;28;20101;-67
2022/12/29 07:27:33;;;;;;;5.32;1.90;;;10.70;99.90;;;10.01;100.00;96798.47;4998227;28;20140;-68
2022/12/29 07:30:00;;;;;;;5.15;1.35;;;10.90;99.90;;;10.18;100.00;96823.53;4998255;28;20404;-67
2022/12/29 07:32:27;;;;;;;4.95;1.77;;;10.90;99.90;;;10.08;100.00;96851.69;5000980;28;20504;-68
2022/12/29 07:34:53;;;;;;;6.18;1.65;;;11.00;99.90;;;10.02;100.00;96831.28;4997968;28;20120;-68
2022/12/29 07:37:20;;;;;;;8.27;1.77;;;10.90;99.90;;;10.10;100.00;96794.56;4994180;28;20046;-68
2022/12/29 07:39:47;;;;;;;4.93;2.00;;;10.90;99.90;;;10.02;100.00;96836.44;4997578;28;20042;-67
2022/12/29 07:42:14;;;;;;;5.95;1.77;;;10.90;99.90;;;10.00;100.00;96853.84;4998853;28;20488;-67
2022/12/29 07:44:41;;;;;;;8.60;2.17;;;10.80;99.90;;;10.00;100.00;96796.81;4997567;28;20141;-68
2022/12/29 07:47:08;;;;;;;3.90;1.75;;;10.60;99.90;;;10.05;100.00;96789.63;4996697;28;20155;-67
2022/12/29 07:49:35;;;;;;;6.25;1.65;;;10.80;99.90;;;10.07;100.00;96885.47;4997070;28;20433;-68
2022/12/29 07:52:05;;;;;;;4.40;1.45;;;10.90;99.90;;;10.07;100.00;96828.44;4995436;28;20061;-68
2022/12/29 07:54:32;;;;;;;7.45;1.50;;;11.00;99.90;;;9.87;100.00;96896.84;4993990;28;20097;-68
2022/12/29 07:57:00;;;;;;;5.45;2.00;;;10.90;99.90;;;9.62;100.00;96862.66;4995147;28;20084;-68
2022/12/29 07:59:27;;;;;;;5.72;2.35;;;10.50;99.90;;;9.50;100.00;96909.06;5000853;28;20050;-67
2022/12/29 08:01:54;;;;;;;11.00;2.83;;;10.20;99.90;;;9.48;100.00;96895.34;4995932;28;20529;-68
2022/12/29 08:04:21;;;;;;;6.85;2.72;;;10.20;99.90;;;9.57;100.00;96894.88;4996701;28;20046;-67
2022/12/29 08:06:48;;;;;;;5.60;2.33;;;10.30;99.90;;;9.60;100.00;96931.88;4997503;28;20045;-68
2022/12/29 08:09:15;;;;;;;7.15;3.00;;;10.40;99.90;;;9.61;100.00;96884.28;4999598;28;20047;-68
2022/12/29 08:11:48;;;;;;;7.47;2.28;;;10.50;99.90;;;9.74;100.00;96907.84;4992967;28;20819;-68
2022/12/29 08:14:15;;;;;;;8.93;2.55;;;10.60;99.90;;;9.77;100.00;96893.91;4995288;28;20056;-68
2022/12/29 08:16:42;;;;;;;6.80;1.92;;;10.60;99.90;;;9.81;100.00;96939.50;4993452;28;20054;-67
2022/12/29 08:19:11;;;;;;;7.80;2.47;;;10.60;99.90;;;9.74;100.00;96907.00;4994374;28;20084;-68
2022/12/29 08:21:38;;;;;;;5.97;2.17;;;10.70;99.90;;;9.74;100.00;96865.53;4995398;28;20050;-67
2022/12/29 08:24:06;;;;;;;5.72;2.63;;;10.60;99.90;;;9.68;100.00;96902.13;4998111;28;20080;-68
2022/12/29 08:26:33;;;;;;;8.73;2.97;;;10.50;99.90;;;9.39;100.00;96899.22;4996879;28;20535;-67
2022/12/29 08:29:00;;;;;;;5.30;3.00;;;10.30;99.90;;;9.23;100.00;96939.72;4995905;28;20046;-68
2022/12/29 08:31:27;;;;;;;7.95;3.08;;;10.00;99.90;;;8.99;100.00;96963.25;4992107;28;20129;-67
2022/12/29 08:33:54;;;;;;;6.45;3.25;;;9.80;99.90;;;8.93;100.00;96984.25;4995967;28;20070;-68
2022/12/29 08:36:21;;;;;;;9.98;3.70;;;9.70;99.90;;;8.98;100.00;96990.03;4998421;28;20046;-68
2022/12/29 08:38:49;;;;;;;7.80;3.45;;;9.60;99.90;;;9.04;100.00;96996.69;4993772;28;20573;-68
2022/12/29 08:41:16;;;;;;;8.18;3.20;;;9.60;99.90;;;9.10;100.00;96967.91;4996572;28;20515;-68
2022/12/29 08:43:47;;;;;;;7.75;4.00;;;9.60;99.90;;;9.09;100.00;96987.78;4998882;28;20060;-68
2022/12/29 08:46:15;;;;;;;7.80;3.30;;;9.70;99.90;;;9.13;100.00;97028.19;4994215;28;20208;-68
2022/12/29 08:48:42;;;;;;;7.28;3.08;;;9.70;99.90;;;9.30;100.00;97009.25;4995611;28;20472;-68
2022/12/29 08:51:09;;;;;;;8.18;3.13;;;9.80;99.90;;;9.29;100.00;96967.91;4996153;28;20050;-68
2022/12/29 08:53:36;;;;;;;7.00;3.00;;;10.00;99.90;;;9.34;100.00;96971.13;4995506;28;20047;-68
2022/12/29 08:56:03;;;;;;;7.50;3.33;;;10.10;99.90;;;9.38;100.00;96989.03;4995917;28;20564;-68
2022/12/29 08:58:32;;;;;;;7.07;2.75;;;10.20;99.90;;;9.31;100.00;96984.22;4989675;28;20042;-69
2022/12/29 09:00:59;;;;;;;6.25;2.78;;;10.20;99.90;;;9.21;100.00;96995.00;4995844;28;20061;-68
2022/12/29 09:03:26;;;;;;;7.15;2.92;;;10.00;99.90;;;9.14;100.00;97014.31;4993413;28;20092;-68
2022/12/29 09:06:16;;;;;;;5.38;2.95;;;10.00;99.90;;;9.18;100.00;97010.69;4992125;28;20101;-67
2022/12/29 09:08:44;;;;;;;5.97;2.95;;;10.00;99.90;;;9.16;100.00;97003.88;5003089;28;20058;-68
2022/12/29 09:11:22;;;;;;;6.15;2.60;;;10.10;99.90;;;9.19;100.00;97004.59;4995102;28;20050;-67
2022/12/29 09:13:49;;;;;;;6.75;2.70;;;10.00;99.90;;;9.07;100.00;97037.97;4997372;28;20452;-68
2022/12/29 09:16:17;;;;;;;6.18;2.53;;;9.90;99.90;;;9.12;100.00;97041.19;4996229;28;20054;-68
2022/12/29 09:18:52;;;;;;;6.72;4.05;;;9.90;99.90;;;9.09;100.00;97049.94;4995289;28;20111;-68
2022/12/29 09:21:19;;;;;;;6.32;3.05;;;10.00;99.90;;;9.16;100.00;97027.19;4999635;28;20050;-68
2022/12/29 09:23:48;;;;;;;8.77;3.25;;;10.10;99.90;;;9.26;100.00;97045.72;4995881;28;20129;-67
2022/12/29 09:26:15;;;;;;;9.27;3.38;;;10.10;99.90;;;9.18;100.00;97023.63;4998615;28;20467;-68
2022/12/29 09:28:44;;;;;;;7.35;3.28;;;10.20;99.90;;;9.22;100.00;97039.88;4994690;28;20050;-67
2022/12/29 09:31:11;;;;;;;5.28;2.90;;;10.20;99.90;;;9.23;100.00;97059.66;5005089;28;20045;-67
2022/12/29 09:33:38;;;;;;;6.28;3.20;;;10.30;99.90;;;9.29;100.00;97007.59;4999078;28;20103;-68
2022/12/29 09:36:05;;;;;;;6.25;3.40;;;10.30;99.90;;;9.27;100.00;97034.47;4994265;28;20046;-68
2022/12/29 09:38:32;;;;;;;5.18;2.67;;;10.30;99.90;;;9.28;100.00;97055.09;4995105;28;20081;-68
2022/12/29 09:41:14;;;;;;;6.13;2.97;;;10.30;99.90;;;9.39;100.00;97045.09;4996996;28;20050;-68
2022/12/29 09:44:23;;;;;;;7.43;3.15;;;10.20;99.90;;;9.26;100.00;97023.28;5004331;28;20518;-67
2022/12/29 09:46:54;;;;;;;10.27;3.60;;;10.30;99.90;;;9.36;100.00;97058.19;5013121;28;20050;-68
2022/12/29 09:49:42;;;;;;;6.57;2.80;;;10.40;99.90;;;9.39;100.00;97073.59;5007906;28;20054;-68
2022/12/29 09:52:16;;;;;;;8.88;3.63;;;10.30;99.90;;;9.35;100.00;97082.44;4987290;28;20054;-68
2022/12/29 09:54:52;;;;;;;8.80;3.70;;;10.30;99.90;;;9.36;100.00;97062.53;5007370;28;20060;-68
2022/12/29 09:57:38;;;;;;;5.00;3.33;;;10.30;99.90;;;9.38;100.00;97029.66;4996470;28;20053;-68
2022/12/29 10:00:17;;;;;;;9.45;5.22;;;10.30;99.90;;;9.30;100.00;97071.41;5013003;28;20061;-68
2022/12/29 10:02:50;;;;;;;16.90;8.25;;;10.30;99.90;;;9.38;100.00;97037.41;5003374;28;20046;-68
2022/12/29 10:05:43;;;;;;;16.05;8.07;;;10.40;99.90;;;9.38;100.00;97050.38;5001049;28;20054;-67
2022/12/29 10:08:54;;;;;;;11.05;5.55;;;10.40;99.90;;;9.56;100.00;97012.41;5005228;28;20052;-68
2022/12/29 10:12:08;;;;;;;14.68;6.43;;;10.50;99.90;;;9.60;100.00;97016.50;5001530;28;20058;-68
2022/12/29 10:15:36;;;;;;;7.38;2.47;;;10.50;99.90;;;9.56;100.00;97020.19;4998208;28;20061;-67
2022/12/29 10:18:24;;;;;;;6.10;2.30;;;10.50;99.90;;;9.58;100.00;97026.97;5004260;28;20157;-68
2022/12/29 10:21:13;;;;;;;6.43;2.15;;;10.60;99.90;;;9.64;100.00;97034.41;5002080;28;20388;-69
2022/12/29 10:23:48;;;;;;;5.68;1.80;;;10.70;99.90;;;9.62;100.00;97063.91;4995506;28;20138;-68
2022/12/29 10:26:20;;;;;;;5.50;1.83;;;10.70;99.90;;;9.62;100.00;97028.50;5002063;28;20046;-68
2022/12/29 10:29:08;;;;;;;5.43;1.75;;;10.70;99.90;;;9.57;100.00;97051.19;4992496;28;20048;-68
2022/12/29 10:32:01;;;;;;;4.10;1.05;;;10.60;99.90;;;9.35;100.00;97063.44;4993423;28;20108;-68
2022/12/29 10:34:39;;;;;;;3.28;1.17;;;10.40;99.90;;;9.13;100.00;97079.97;4994898;28;20046;-67
2022/12/29 10:37:47;;;;;;;5.70;1.20;;;10.20;99.90;;;8.91;100.00;97064.53;4999833;28;20051;-68
2022/12/29 10:40:23;;;;;;;3.80;1.00;;;9.90;99.90;;;8.81;100.00;97106.44;4999507;28;20092;-67
2022/12/29 10:42:57;;;;;;;2.88;0.90;;;9.70;99.90;;;8.85;100.00;97095.00;4996488;28;20579;-68
2022/12/29 10:45:30;;;;;;;2.80;0.77;;;9.50;99.90;;;8.83;100.00;97127.91;4997410;28;20053;-68
2022/12/29 10:48:17;;;;;;;2.47;0.70;;;9.40;99.90;;;8.88;100.00;97149.25;4998780;28;20130;-67
2022/12/29 10:50:44;;;;;;;3.05;0.63;;;9.50;99.90;;;8.85;100.00;97095.88;4999141;28;20056;-68
2022/12/29 10:53:19;;;;;;;5.95;1.48;;;9.50;99.90;;;8.96;100.00;97074.69;4998961;28;20530;-67
2022/12/29 10:55:46;;;;;;;7.80;2.85;;;9.50;99.90;;;8.97;100.00;97046.16;4987535;28;20061;-69
2022/12/29 10:58:15;;;;;;;5.63;1.73;;;9.50;99.90;;;9.00;100.00;97082.25;4998025;28;20042;-67
2022/12/29 11:00:49;;;;;;;4.97;1.65;;;9.50;99.90;;;9.03;100.00;97094.22;5002385;28;20077;-68
2022/12/29 11:03:41;;;;;;;3.65;1.08;;;9.50;99.90;;;9.02;100.00;97066.66;4997569;28;20057;-67
2022/12/29 11:06:22;;;;;;;3.30;1.13;;;9.40;99.90;;;9.02;100.00;97045.94;5002073;28;20061;-67
2022/12/29 11:09:23;;;;;;;3.25;1.10;;;9.60;99.90;;;9.09;100.00;97073.22;5000320;28;20046;-68
2022/12/29 11:12:26;;;;;;;4.72;1.40;;;9.80;99.90;;;9.18;100.00;97100.47;4999794;28;20195;-68
2022/12/29 11:15:15;;;;;;;3.80;1.17;;;9.80;99.90;;;9.20;100.00;97138.34;4996124;28;20144;-68
2022/12/29 11:17:57;;;;;;;5.13;1.33;;;9.80;99.90;;;9.29;100.00;97124.13;4997400;28;20046;-68
2022/12/29 11:20:30;;;;;;;5.35;1.30;;;9.90;99.90;;;9.43;100.00;97093.25;4993865;28;20130;-67
2022/12/29 11:22:58;;;;;;;4.07;1.30;;;10.00;99.90;;;9.49;100.00;97074.03;4999627;28;20120;-67